Terminal Aerodrome Forecast
Issued by NWS Huntsville, AL

Home | Current Version | Previous Version | Text Only | Print | Product List | Glossary On
Versions: 1 2 3 4 5 6 7 8 9 10 11 12 13 14 15 16 17
000
FTUS44 KHUN 271720
TAFMSL
TAF
KMSL 271720Z 2718/2818 10007KT P6SM VCTS BKN030CB
      TEMPO 2721/2801 6SM -TSRA BKN035CB
     FM280200 08003KT P6SM SCT100 OVC250
     FM281200 10008KT P6SM SCT025 OVC050=

USA.gov is the U.S. government's official web portal to all federal, state and local government web resources and services.